Terminal Aerodrome Forecast
Issued by NWS

Home | Current Version | Previous Version | Text Only | Print | Product List | Glossary On
Versions: 1 2 3 4 5 6 7 8 9 10 11 12 13 14 15 16
000
FTAK31 PAJN 292338
TAFAKT
TAF
PAKT 292338Z 3000/3024 13009KT P6SM VCSH FEW010 SCT025 BKN040
      TEMPO 3000/3004 6SM -SHRA SCT010 BKN025 OVC040
     FM300900 15010KT P6SM BKN040 OVC070
     FM301300 15015KT P6SM OVC040
     FM301500 14015G25KT P6SM -RA SCT020 OVC040
     FM301700 15020G32KT 5SM RA BR SCT015 OVC025 WS020/14045KT
      AMD LTD TO CLD VIS AND WIND 3006/3015=

USA.gov is the U.S. government's official web portal to all federal, state and local government web resources and services.